createdAt,value
2022-08-24T00:01:22.460Z,101104.94
2022-08-24T00:03:55.338Z,101073.88
2022-08-24T00:06:26.658Z,101101.06
2022-08-24T00:08:56.530Z,101099.34
2022-08-24T00:11:24.825Z,101105.78
2022-08-24T00:13:53.800Z,101107.09
2022-08-24T00:16:22.227Z,101095.78
2022-08-24T00:18:51.737Z,101093.31
2022-08-24T00:21:20.115Z,101094.59
2022-08-24T00:23:49.501Z,101081.13
2022-08-24T00:26:19.653Z,101093.53
2022-08-24T00:28:56.909Z,101087.06
2022-08-24T00:31:25.150Z,101087.19
2022-08-24T00:33:54.752Z,101092.75
2022-08-24T00:36:23.452Z,101092.22
2022-08-24T00:38:51.737Z,101087.69
2022-08-24T00:41:19.830Z,101091.59
2022-08-24T00:43:56.326Z,101092.56
2022-08-24T00:46:28.870Z,101088.13
2022-08-24T00:49:05.345Z,101090.06
2022-08-24T00:51:38.271Z,101094.81
2022-08-24T00:54:09.070Z,101088.66
2022-08-24T00:56:43.736Z,101081.59
2022-08-24T00:59:15.517Z,101087.69
2022-08-24T01:01:45.014Z,101067.59
2022-08-24T01:04:23.213Z,101072.97
2022-08-24T01:06:51.337Z,101085.28
2022-08-24T01:09:19.356Z,101078.38
2022-08-24T01:11:48.345Z,101079.25
2022-08-24T01:14:17.479Z,101077.41
2022-08-24T01:17:03.339Z,101075.91
2022-08-24T01:19:39.471Z,101085.81
2022-08-24T01:22:21.738Z,101079.56
2022-08-24T01:24:51.178Z,101081.59
2022-08-24T01:27:19.950Z,101076.53
2022-08-24T01:29:57.267Z,101060.44
2022-08-24T01:32:27.848Z,101079.63
2022-08-24T01:34:56.922Z,101080.59
2022-08-24T01:37:25.540Z,101085.88
2022-08-24T01:39:59.334Z,101087.81
2022-08-24T01:42:29.868Z,101080.69
2022-08-24T01:44:58.170Z,101089.78
2022-08-24T01:47:26.142Z,101074.63
2022-08-24T01:49:54.245Z,101083.63
2022-08-24T01:52:25.702Z,101089.59
2022-08-24T01:54:55.569Z,101097.91
2022-08-24T01:57:25.653Z,101092.81
2022-08-24T01:59:53.913Z,101098.50
2022-08-24T02:02:27.909Z,101105.81
2022-08-24T02:04:58.055Z,101103.44
2022-08-24T02:07:27.346Z,101095.00
2022-08-24T02:09:56.740Z,101105.50
2022-08-24T02:12:25.608Z,101091.97
2022-08-24T02:14:53.699Z,101116.75
2022-08-24T02:17:22.064Z,101108.13
2022-08-24T02:19:51.624Z,101115.34
2022-08-24T02:22:20.835Z,101116.19
2022-08-24T02:24:48.964Z,101095.09
2022-08-24T02:27:18.505Z,101116.00
2022-08-24T02:29:46.910Z,101118.16
2022-08-24T02:32:15.554Z,101125.44
2022-08-24T02:34:44.100Z,101105.28
2022-08-24T02:37:12.352Z,101130.31
2022-08-24T02:39:41.070Z,101130.53
2022-08-24T02:42:15.508Z,101136.97
2022-08-24T02:44:44.888Z,101134.66
2022-08-24T02:47:13.127Z,101133.06
2022-08-24T02:49:41.172Z,101132.38
2022-08-24T02:52:10.004Z,101129.28
2022-08-24T02:54:39.643Z,101132.97
2022-08-24T02:57:08.907Z,101134.19
2022-08-24T02:59:37.124Z,101133.22
2022-08-24T03:02:06.830Z,101137.00
2022-08-24T03:04:35.354Z,101131.81
2022-08-24T03:07:05.373Z,101129.41
2022-08-24T03:09:33.567Z,101123.94
2022-08-24T03:12:01.569Z,101120.56
2022-08-24T03:14:29.645Z,101129.50
2022-08-24T03:16:57.691Z,101135.09
2022-08-24T03:19:27.191Z,101139.47
2022-08-24T03:21:55.640Z,101136.03
2022-08-24T03:24:23.747Z,101135.25
2022-08-24T03:26:52.321Z,101143.31
2022-08-24T03:29:20.703Z,101137.94
2022-08-24T03:31:52.558Z,101142.47
2022-08-24T03:34:21.043Z,101136.41
2022-08-24T03:36:50.585Z,101133.91
2022-08-24T03:39:18.840Z,101131.22
2022-08-24T03:41:50.211Z,101134.84
2022-08-24T03:44:22.514Z,101137.47
2022-08-24T03:46:51.763Z,101144.88
2022-08-24T03:49:20.753Z,101137.94
2022-08-24T03:51:50.760Z,101146.69
2022-08-24T03:54:22.216Z,101142.34
2022-08-24T03:56:50.280Z,101141.94
2022-08-24T03:59:20.150Z,101144.63
2022-08-24T04:01:51.023Z,101131.31
2022-08-24T04:04:19.301Z,101139.38
2022-08-24T04:06:48.459Z,101142.44
2022-08-24T04:09:19.401Z,101142.91
2022-08-24T04:11:51.939Z,101152.94
2022-08-24T04:14:26.712Z,101140.59
2022-08-24T04:17:07.150Z,101138.50
2022-08-24T04:19:57.276Z,101151.66
2022-08-24T04:22:29.531Z,101145.78
2022-08-24T04:24:58.997Z,101139.72
2022-08-24T04:27:29.219Z,101127.25
2022-08-24T04:29:57.764Z,101137.75
2022-08-24T04:32:28.721Z,101134.34
2022-08-24T04:34:59.134Z,101135.50
2022-08-24T04:37:29.251Z,101154.53
2022-08-24T04:39:59.712Z,101156.25
2022-08-24T04:42:35.534Z,101157.13
2022-08-24T04:45:05.526Z,101159.56
2022-08-24T04:47:33.681Z,101163.19
2022-08-24T04:50:01.675Z,101160.69
2022-08-24T04:52:30.238Z,101148.91
2022-08-24T04:54:59.629Z,101155.31
2022-08-24T04:57:28.195Z,101166.03
2022-08-24T04:59:59.155Z,101171.16
2022-08-24T05:02:27.542Z,101170.38
2022-08-24T05:04:58.451Z,101172.81
2022-08-24T05:07:26.795Z,101165.72
2022-08-24T05:09:55.918Z,101151.16
2022-08-24T05:12:26.873Z,101181.25
2022-08-24T05:15:01.075Z,101180.06
2022-08-24T05:17:30.553Z,101176.13
2022-08-24T05:19:59.431Z,101174.59
2022-08-24T05:22:28.571Z,101175.94
2022-08-24T05:24:58.055Z,101171.94
2022-08-24T05:27:27.695Z,101174.66
2022-08-24T05:29:56.707Z,101179.56
2022-08-24T05:32:25.108Z,101147.94
2022-08-24T05:34:54.692Z,101183.84
2022-08-24T05:37:23.486Z,101176.19
2022-08-24T05:40:10.956Z,101179.25
2022-08-24T05:42:42.825Z,101184.63
2022-08-24T05:45:12.818Z,101178.25
2022-08-24T05:47:41.394Z,101183.78
2022-08-24T05:50:23.726Z,101181.94
2022-08-24T05:52:51.747Z,101181.06
2022-08-24T05:55:20.630Z,101174.75
2022-08-24T05:57:50.719Z,101181.13
2022-08-24T06:00:23.570Z,101187.84
2022-08-24T06:02:52.983Z,101191.72
2022-08-24T06:05:22.446Z,101181.84
2022-08-24T06:07:50.894Z,101184.88
2022-08-24T06:10:36.323Z,101186.19
2022-08-24T06:13:06.284Z,101190.72
2022-08-24T06:15:34.999Z,101192.56
2022-08-24T06:18:03.542Z,101198.69
2022-08-24T06:20:31.769Z,101199.63
2022-08-24T06:22:59.943Z,101202.38
2022-08-24T06:25:53.307Z,101207.97
2022-08-24T06:28:23.742Z,101171.75
2022-08-24T06:30:51.967Z,101216.69
2022-08-24T06:33:26.684Z,101219.00
2022-08-24T06:35:57.472Z,101209.25
2022-08-24T06:38:25.666Z,101210.41
2022-08-24T06:43:24.939Z,101207.88
2022-08-24T06:45:55.929Z,101213.56
2022-08-24T06:48:36.974Z,101208.34
2022-08-24T06:51:11.398Z,101210.63
2022-08-24T06:53:40.554Z,101217.31
2022-08-24T06:56:10.700Z,101206.09
2022-08-24T06:58:40.195Z,101222.53
2022-08-24T07:01:14.491Z,101213.47
2022-08-24T07:03:44.032Z,101218.94
2022-08-24T07:06:30.657Z,101225.13
2022-08-24T07:09:01.582Z,101224.47
2022-08-24T07:11:32.741Z,101231.31
2022-08-24T07:14:03.013Z,101230.34
2022-08-24T07:16:31.314Z,101233.31
2022-08-24T07:19:03.504Z,101237.25
2022-08-24T07:21:32.292Z,101231.31
2022-08-24T07:24:02.353Z,101234.97
2022-08-24T07:26:34.767Z,101232.31
2022-08-24T07:29:30.613Z,101242.41
2022-08-24T07:32:01.849Z,101240.34
2022-08-24T07:34:38.407Z,101250.41
2022-08-24T07:37:08.043Z,101246.47
2022-08-24T07:39:39.145Z,101249.00
2022-08-24T07:42:20.714Z,101213.50
2022-08-24T07:44:52.924Z,101243.66
2022-08-24T07:47:41.628Z,101253.19
2022-08-24T07:50:23.426Z,101252.38
2022-08-24T07:52:51.634Z,101250.25
2022-08-24T07:55:19.972Z,101250.13
2022-08-24T07:57:48.221Z,101256.44
2022-08-24T08:00:20.570Z,101260.59
2022-08-24T08:02:54.238Z,101259.47
2022-08-24T08:05:24.174Z,101258.63
2022-08-24T08:07:54.370Z,101254.22
2022-08-24T08:10:23.397Z,101246.19
2022-08-24T08:12:52.933Z,101264.34
2022-08-24T08:15:22.980Z,101266.94
2022-08-24T08:18:00.169Z,101260.75
2022-08-24T08:20:28.278Z,101232.69
2022-08-24T08:23:14.607Z,101264.81
2022-08-24T08:25:58.513Z,101265.03
2022-08-24T08:28:39.657Z,101256.84
2022-08-24T08:31:09.678Z,101259.63
2022-08-24T08:33:38.090Z,101243.06
2022-08-24T08:36:09.103Z,101247.59
2022-08-24T08:38:42.907Z,101250.16
2022-08-24T08:41:48.980Z,101246.94
2022-08-24T08:44:36.334Z,101223.69
2022-08-24T08:47:22.725Z,101240.53
2022-08-24T08:50:04.634Z,101238.94
2022-08-24T08:53:04.676Z,101247.09
2022-08-24T08:55:38.982Z,101233.91
2022-08-24T08:58:27.498Z,101229.22
2022-08-24T09:01:04.699Z,101234.13
2022-08-24T09:03:44.661Z,101224.09
2022-08-24T09:06:56.573Z,101233.09
2022-08-24T09:09:49.294Z,101219.16
2022-08-24T09:12:25.419Z,101228.84
2022-08-24T09:15:09.084Z,101225.84
2022-08-24T09:17:52.055Z,101227.88
2022-08-24T09:20:44.382Z,101230.09
2022-08-24T09:23:23.067Z,101227.41
2022-08-24T09:28:54.862Z,101214.38
2022-08-24T09:31:55.121Z,101235.66
2022-08-24T09:34:38.126Z,101225.75
2022-08-24T09:37:31.601Z,101231.03
2022-08-24T09:40:03.997Z,101223.84
2022-08-24T09:43:09.733Z,101222.22
2022-08-24T09:46:37.866Z,101221.38
2022-08-24T09:52:53.266Z,101222.84
2022-08-24T09:56:04.942Z,101224.22
2022-08-24T09:58:45.442Z,101230.72
2022-08-24T10:01:26.187Z,101230.09
2022-08-24T10:04:19.420Z,101231.41
2022-08-24T10:06:58.509Z,101235.53
2022-08-24T10:10:00.546Z,101237.97
2022-08-24T10:12:40.057Z,101221.56
2022-08-24T10:15:11.550Z,101219.13
2022-08-24T10:17:51.960Z,101214.09
2022-08-24T10:20:24.677Z,101205.00
2022-08-24T10:23:08.981Z,101210.66
2022-08-24T10:25:41.499Z,101219.88
2022-08-24T10:28:35.059Z,101207.84
2022-08-24T10:31:09.672Z,101215.03
2022-08-24T10:33:52.925Z,101213.00
2022-08-24T10:36:57.140Z,101204.09
2022-08-24T10:39:51.819Z,101209.09
2022-08-24T10:43:42.545Z,101199.28
2022-08-24T10:46:37.578Z,101200.97
2022-08-24T10:49:32.849Z,101204.31
2022-08-24T10:52:32.616Z,101202.06
2022-08-24T10:55:14.692Z,101207.94
2022-08-24T10:57:54.979Z,101200.25
2022-08-24T11:00:28.821Z,101197.31
2022-08-24T11:03:10.722Z,101203.44
2022-08-24T11:05:43.371Z,101198.97
2022-08-24T11:08:20.815Z,101195.00
2022-08-24T11:11:06.800Z,101193.97
2022-08-24T11:13:36.565Z,101183.56
2022-08-24T11:16:07.166Z,101203.94
2022-08-24T11:18:51.217Z,101191.56
2022-08-24T11:21:36.854Z,101190.84
2022-08-24T11:24:08.708Z,101182.72
2022-08-24T11:26:54.334Z,101183.69
2022-08-24T11:29:27.335Z,101178.13
2022-08-24T11:31:55.884Z,101183.84
2022-08-24T11:34:35.993Z,101178.31
2022-08-24T11:37:05.056Z,101181.78
2022-08-24T11:39:36.030Z,101181.78
2022-08-24T11:42:16.267Z,101174.09
2022-08-24T11:44:49.819Z,101170.41
2022-08-24T11:47:44.421Z,101181.03
2022-08-24T11:50:31.846Z,101167.75
2022-08-24T11:53:13.031Z,101168.81
2022-08-24T11:55:51.621Z,101166.88
2022-08-24T11:58:38.818Z,101167.22
2022-08-24T12:01:15.025Z,101172.03
2022-08-24T12:03:56.101Z,101163.19
2022-08-24T12:06:34.136Z,101167.50
2022-08-24T12:09:12.035Z,101166.13
2022-08-24T12:11:47.352Z,101162.16
2022-08-24T12:14:21.923Z,101169.81
2022-08-24T12:16:55.388Z,101162.34
2022-08-24T12:19:29.730Z,101162.44
2022-08-24T12:22:03.078Z,101164.50
2022-08-24T12:24:36.468Z,101157.63
2022-08-24T12:27:11.135Z,101164.63
2022-08-24T12:29:44.358Z,101166.84
2022-08-24T12:32:18.218Z,101170.22
2022-08-24T12:34:58.370Z,101180.88
2022-08-24T12:37:32.479Z,101160.03
2022-08-24T12:40:08.658Z,101162.22
2022-08-24T12:42:48.625Z,101164.75
2022-08-24T12:45:21.027Z,101161.75
2022-08-24T12:47:55.462Z,101159.88
2022-08-24T12:50:31.667Z,101152.38
2022-08-24T12:53:43.637Z,101159.97
2022-08-24T12:56:55.385Z,101151.66
2022-08-24T12:59:26.467Z,101153.28
2022-08-24T13:02:05.265Z,101152.38
2022-08-24T13:04:45.425Z,101155.72
2022-08-24T13:07:30.056Z,101138.03
2022-08-24T13:10:11.998Z,101150.09
2022-08-24T13:12:56.906Z,101148.31
2022-08-24T13:16:04.487Z,101150.09
2022-08-24T13:18:51.753Z,101150.41
2022-08-24T13:21:41.286Z,101146.41
2022-08-24T13:24:49.923Z,101135.59
2022-08-24T13:28:02.404Z,101137.50
2022-08-24T13:30:36.450Z,101136.97
2022-08-24T13:33:10.516Z,101130.09
2022-08-24T13:36:01.931Z,101137.81
2022-08-24T13:39:01.675Z,101140.50
2022-08-24T13:41:49.732Z,101124.34
2022-08-24T13:44:32.845Z,101116.28
2022-08-24T13:47:15.329Z,101119.66
2022-08-24T13:49:54.174Z,101124.88
2022-08-24T13:52:33.159Z,101118.03
2022-08-24T13:55:16.823Z,101114.44
2022-08-24T13:57:50.695Z,101124.34
2022-08-24T14:00:44.033Z,101127.91
2022-08-24T14:03:32.622Z,101119.63
2022-08-24T14:06:20.662Z,101118.25
2022-08-24T14:09:01.679Z,101113.25
2022-08-24T14:11:45.210Z,101121.38
2022-08-24T14:14:23.111Z,101115.25
2022-08-24T14:17:20.699Z,101116.22
2022-08-24T14:20:03.778Z,101121.44
2022-08-24T14:22:38.092Z,101118.56
2022-08-24T14:25:19.472Z,101103.47
2022-08-24T14:27:49.291Z,101107.72
2022-08-24T14:30:46.796Z,101113.69
2022-08-24T14:33:27.285Z,101111.16
2022-08-24T14:36:22.198Z,101109.53
2022-08-24T14:39:06.596Z,101111.94
2022-08-24T14:41:51.323Z,101109.38
2022-08-24T14:44:29.573Z,101107.72
2022-08-24T14:47:08.051Z,101104.22
2022-08-24T14:49:46.712Z,101093.91
2022-08-24T14:52:43.194Z,101104.13
2022-08-24T14:55:19.799Z,101094.47
2022-08-24T14:58:02.768Z,101094.81
2022-08-24T15:00:50.821Z,101088.56
2022-08-24T15:03:37.615Z,101098.38
2022-08-24T15:06:28.634Z,101089.84
2022-08-24T15:09:09.800Z,101095.28
2022-08-24T15:11:41.696Z,101073.88
2022-08-24T15:14:22.450Z,101085.75
2022-08-24T15:16:54.411Z,101073.88
2022-08-24T15:19:30.607Z,101072.94
2022-08-24T15:22:03.854Z,101075.03
2022-08-24T15:24:40.382Z,101085.16
2022-08-24T15:27:15.790Z,101086.09
2022-08-24T15:29:51.916Z,101074.66
2022-08-24T15:32:21.362Z,101073.28
2022-08-24T15:34:59.151Z,101072.00
2022-08-24T15:37:31.662Z,101083.84
2022-08-24T15:40:00.038Z,101072.13
2022-08-24T15:42:31.146Z,101083.81
2022-08-24T15:45:02.231Z,101079.91
2022-08-24T15:47:33.705Z,101084.25
2022-08-24T15:50:04.061Z,101086.56
2022-08-24T15:52:57.616Z,101064.34
2022-08-24T15:55:35.812Z,101076.66
2022-08-24T15:58:28.234Z,101066.47
2022-08-24T16:01:18.883Z,101080.88
2022-08-24T16:03:52.354Z,101083.19
2022-08-24T16:06:37.432Z,101073.84
2022-08-24T16:09:13.363Z,101069.97
2022-08-24T16:11:45.618Z,101077.19
2022-08-24T16:14:24.480Z,101075.69
2022-08-24T16:16:54.420Z,101076.69
2022-08-24T16:19:26.809Z,101077.03
2022-08-24T16:21:59.498Z,101076.25
2022-08-24T16:24:34.644Z,101077.59
2022-08-24T16:27:07.447Z,101080.22
2022-08-24T16:29:55.910Z,101077.19
2022-08-24T16:32:33.655Z,101079.13
2022-08-24T16:35:18.334Z,101084.78
2022-08-24T16:37:46.370Z,101082.81
2022-08-24T16:40:16.320Z,101082.59
2022-08-24T16:42:44.499Z,101093.50
2022-08-24T16:45:17.331Z,101095.63
2022-08-24T16:47:46.833Z,101091.22
2022-08-24T16:50:19.653Z,101092.59
2022-08-24T16:52:49.572Z,101087.81
2022-08-24T16:55:20.485Z,101093.03
2022-08-24T16:57:49.002Z,101097.84
2022-08-24T17:00:22.012Z,101082.13
2022-08-24T17:02:51.720Z,101088.47
2022-08-24T17:05:24.203Z,101083.75
2022-08-24T17:07:52.934Z,101083.75
2022-08-24T17:10:23.682Z,101090.41
2022-08-24T17:12:51.852Z,101093.22
2022-08-24T17:15:20.118Z,101099.72
2022-08-24T17:17:56.251Z,101091.31
2022-08-24T17:20:24.267Z,101087.91
2022-08-24T17:22:52.289Z,101098.00
2022-08-24T17:25:20.293Z,101093.41
2022-08-24T17:27:49.785Z,101098.00
2022-08-24T17:30:18.539Z,101106.03
2022-08-24T17:32:48.065Z,101100.53
2022-08-24T17:35:16.389Z,101107.84
2022-08-24T17:37:44.733Z,101105.13
2022-08-24T17:40:15.562Z,101107.81
2022-08-24T17:42:51.753Z,101103.00
2022-08-24T17:45:23.003Z,101120.41
2022-08-24T17:47:52.419Z,101123.81
2022-08-24T17:50:21.826Z,101115.75
2022-08-24T17:52:50.428Z,101121.88
2022-08-24T17:55:27.797Z,101123.72
2022-08-24T17:57:55.819Z,101133.03
2022-08-24T18:00:26.087Z,101130.09
2022-08-24T18:02:57.739Z,101135.81
2022-08-24T18:05:31.715Z,101136.81
2022-08-24T18:08:01.010Z,101137.75
2022-08-24T18:10:34.110Z,101141.13
2022-08-24T18:13:04.369Z,101139.38
2022-08-24T18:15:36.855Z,101137.22
2022-08-24T18:18:09.389Z,101146.69
2022-08-24T18:20:41.594Z,101143.03
2022-08-24T18:23:11.411Z,101143.13
2022-08-24T18:25:44.768Z,101143.66
2022-08-24T18:28:13.411Z,101150.44
2022-08-24T18:30:42.984Z,101151.06
2022-08-24T18:33:11.964Z,101156.56
2022-08-24T18:35:40.017Z,101161.75
2022-08-24T18:38:08.170Z,101160.50
2022-08-24T18:40:36.348Z,101157.53
2022-08-24T18:43:05.219Z,101138.72
2022-08-24T18:45:34.428Z,101168.13
2022-08-24T18:48:04.517Z,101176.72
2022-08-24T18:50:36.757Z,101171.03
2022-08-24T18:53:06.894Z,101175.53
2022-08-24T18:55:37.137Z,101178.16
2022-08-24T18:58:05.386Z,101182.44
2022-08-24T19:00:34.353Z,101172.41
2022-08-24T19:03:07.954Z,101179.63
2022-08-24T19:05:38.291Z,101188.41
2022-08-24T19:08:07.421Z,101182.81
2022-08-24T19:10:37.672Z,101188.56
2022-08-24T19:13:10.493Z,101185.56
2022-08-24T19:15:39.561Z,101185.13
2022-08-24T19:18:11.607Z,101186.88
2022-08-24T19:20:45.975Z,101190.31
2022-08-24T19:23:20.155Z,101194.03
2022-08-24T19:25:49.123Z,101189.84
2022-08-24T19:28:17.469Z,101191.16
2022-08-24T19:30:46.833Z,101191.75
2022-08-24T19:33:22.743Z,101209.78
2022-08-24T19:35:52.240Z,101200.03
2022-08-24T19:38:25.138Z,101199.19
2022-08-24T19:40:54.817Z,101198.75
2022-08-24T19:43:24.136Z,101193.16
2022-08-24T19:46:05.304Z,101204.03
2022-08-24T19:48:37.741Z,101198.75
2022-08-24T19:51:08.014Z,101204.31
2022-08-24T19:53:39.536Z,101206.03
2022-08-24T19:56:08.813Z,101209.34
2022-08-24T19:58:46.348Z,101207.13
2022-08-24T20:01:19.238Z,101209.16
2022-08-24T20:03:49.265Z,101191.91
2022-08-24T20:06:20.522Z,101219.66
2022-08-24T20:08:49.205Z,101208.34
2022-08-24T20:11:19.111Z,101210.63
2022-08-24T20:13:47.373Z,101216.75
2022-08-24T20:16:20.483Z,101213.72
2022-08-24T20:18:50.009Z,101217.00
2022-08-24T20:21:18.276Z,101225.41
2022-08-24T20:23:47.366Z,101225.81
2022-08-24T20:26:15.770Z,101224.75
2022-08-24T20:28:47.373Z,101224.06
2022-08-24T20:31:16.309Z,101228.31
2022-08-24T20:33:44.668Z,101236.84
2022-08-24T20:36:22.777Z,101233.06
2022-08-24T20:38:50.933Z,101230.00
2022-08-24T20:41:18.926Z,101230.69
2022-08-24T20:43:46.909Z,101229.22
2022-08-24T20:46:15.186Z,101239.34
2022-08-24T20:48:43.519Z,101241.47
2022-08-24T20:51:11.756Z,101242.84
2022-08-24T20:53:41.031Z,101244.13
2022-08-24T20:56:12.551Z,101250.81
2022-08-24T20:58:41.058Z,101244.19
2022-08-24T21:01:09.995Z,101242.84
2022-08-24T21:03:38.297Z,101249.63
2022-08-24T21:06:07.321Z,101247.19
2022-08-24T21:08:36.035Z,101248.47
2022-08-24T21:11:06.513Z,101251.78
2022-08-24T21:13:34.543Z,101233.81
2022-08-24T21:16:04.606Z,101247.00
2022-08-24T21:18:32.944Z,101240.09
2022-08-24T21:21:04.273Z,101243.31
2022-08-24T21:23:33.722Z,101233.72
2022-08-24T21:26:03.098Z,101240.25
2022-08-24T21:28:33.491Z,101241.63
2022-08-24T21:31:05.934Z,101240.41
2022-08-24T21:33:52.875Z,101249.78
2022-08-24T21:36:23.506Z,101250.28
2022-08-24T21:38:53.604Z,101248.94
2022-08-24T21:41:22.886Z,101255.59
2022-08-24T21:43:52.540Z,101252.38
2022-08-24T21:46:20.735Z,101253.53
2022-08-24T21:48:48.744Z,101239.06
2022-08-24T21:51:16.732Z,101253.34
2022-08-24T21:53:44.835Z,101248.44
2022-08-24T21:56:13.760Z,101257.66
2022-08-24T21:58:42.107Z,101253.75
2022-08-24T22:01:11.532Z,101256.19
2022-08-24T22:03:39.995Z,101250.63
2022-08-24T22:06:09.576Z,101251.75
2022-08-24T22:08:38.097Z,101250.25
2022-08-24T22:11:06.768Z,101256.03
2022-08-24T22:13:35.551Z,101244.47
2022-08-24T22:16:04.161Z,101247.31
2022-08-24T22:18:35.348Z,101239.78
2022-08-24T22:21:08.108Z,101245.69
2022-08-24T22:23:36.653Z,101233.41
2022-08-24T22:26:05.171Z,101249.22
2022-08-24T22:28:34.070Z,101254.88
2022-08-24T22:31:02.266Z,101248.94
2022-08-24T22:33:30.410Z,101246.34
2022-08-24T22:35:59.787Z,101246.72
2022-08-24T22:38:27.784Z,101245.19
2022-08-24T22:40:56.308Z,101245.44
2022-08-24T22:43:44.281Z,101246.75
2022-08-24T22:46:12.434Z,101246.38
2022-08-24T22:48:40.538Z,101239.72
2022-08-24T22:51:10.578Z,101239.44
2022-08-24T22:53:39.267Z,101235.69
2022-08-24T22:56:15.688Z,101237.88
2022-08-24T22:58:43.845Z,101229.72
2022-08-24T23:01:18.475Z,101231.00
2022-08-24T23:03:49.741Z,101228.97
2022-08-24T23:06:19.910Z,101236.84
2022-08-24T23:08:48.372Z,101244.47
2022-08-24T23:11:17.425Z,101237.53
2022-08-24T23:13:45.597Z,101233.34
2022-08-24T23:16:15.254Z,101241.63
2022-08-24T23:19:00.884Z,101233.88
2022-08-24T23:21:31.079Z,101238.88
2022-08-24T23:23:59.527Z,101243.63
2022-08-24T23:26:27.958Z,101237.69
2022-08-24T23:28:55.960Z,101231.16
2022-08-24T23:31:24.011Z,101234.81
2022-08-24T23:33:53.689Z,101232.44
2022-08-24T23:36:23.563Z,101229.31
2022-08-24T23:38:54.601Z,101232.59
2022-08-24T23:41:25.970Z,101229.47
2022-08-24T23:43:54.779Z,101220.09
2022-08-24T23:46:24.000Z,101225.38
2022-08-24T23:48:55.795Z,101232.91
2022-08-24T23:51:25.109Z,101229.06
2022-08-24T23:53:54.633Z,101228.94
2022-08-24T23:56:25.280Z,101229.06
2022-08-24T23:58:53.854Z,101223.75
